Time;durP1;ratioP1;P1;durP2;ratioP2;P2;SDS_P1;SDS_P2;PMS_P1;PMS_P2;Temp;Humidity;BMP_temperature;BMP_pressure;BME280_temperature;BME280_humidity;BME280_pressure;Samples;Min_cycle;Max_cycle;Signal;HPM_P1;HPM_P2
2021/03/12 00:01:58;;;;;;;2.27;0.90;;;6.20;99.90;;;;;;5073082;28;20466;-69
2021/03/12 00:04:24;;;;;;;1.93;0.97;;;6.20;99.90;;;;;;5073067;28;20443;-70
2021/03/12 00:06:51;;;;;;;2.57;1.30;;;6.30;99.90;;;;;;5070946;28;20594;-70
2021/03/12 00:09:17;;;;;;;2.53;1.57;;;6.50;99.90;;;;;;5071146;28;20528;-68
2021/03/12 00:11:43;;;;;;;5.03;1.20;;;6.70;99.90;;;;;;5060551;28;20562;-69
2021/03/12 00:14:11;;;;;;;3.50;1.20;;;6.90;99.90;;;;;;5054211;28;20487;-69
2021/03/12 00:16:38;;;;;;;2.40;1.10;;;7.10;99.90;;;;;;5068491;28;20538;-69
2021/03/12 00:19:04;;;;;;;2.10;0.80;;;7.20;99.90;;;;;;5074479;28;20446;-69
2021/03/12 00:21:31;;;;;;;3.00;1.03;;;7.30;99.90;;;;;;5074554;28;20479;-68
2021/03/12 00:23:57;;;;;;;3.70;0.90;;;7.40;99.90;;;;;;5074801;28;20439;-71
2021/03/12 00:26:24;;;;;;;4.20;1.00;;;7.50;99.90;;;;;;5075037;28;20439;-69
2021/03/12 00:28:50;;;;;;;2.50;1.20;;;7.50;99.90;;;;;;5074661;28;20517;-70
2021/03/12 00:31:17;;;;;;;4.27;0.90;;;7.60;99.90;;;;;;5074714;28;20501;-69
2021/03/12 00:33:44;;;;;;;3.00;1.17;;;7.60;99.90;;;;;;5074414;28;20578;-69
2021/03/12 00:36:10;;;;;;;5.80;2.07;;;7.70;99.90;;;;;;5074580;28;20450;-69
2021/03/12 00:38:36;;;;;;;3.30;1.40;;;7.80;99.90;;;;;;5073968;28;20451;-69
2021/03/12 00:41:05;;;;;;;5.73;1.13;;;7.90;99.90;;;;;;5074305;28;20501;-69
2021/03/12 00:43:32;;;;;;;2.53;0.90;;;8.00;99.90;;;;;;5073971;28;20869;-70
2021/03/12 00:46:02;;;;;;;6.57;1.13;;;8.10;99.90;;;;;;5074064;28;20517;-70
2021/03/12 00:48:30;;;;;;;2.50;1.27;;;8.10;99.90;;;;;;5073625;28;20482;-69
2021/03/12 00:50:56;;;;;;;3.07;1.00;;;8.10;99.90;;;;;;5073514;28;20901;-70
2021/03/12 00:53:23;;;;;;;3.23;1.40;;;8.00;99.90;;;;;;5073316;28;21059;-68
2021/03/12 00:55:50;;;;;;;5.50;1.20;;;8.00;99.90;;;;;;5073460;28;20526;-70
2021/03/12 00:58:17;;;;;;;5.10;1.40;;;8.10;99.90;;;;;;5073624;28;20482;-69
2021/03/12 01:00:44;;;;;;;3.60;1.10;;;8.10;99.90;;;;;;5073177;28;20561;-69
2021/03/12 01:03:11;;;;;;;3.90;1.37;;;8.20;99.90;;;;;;5073431;28;20534;-71
2021/03/12 01:05:39;;;;;;;3.37;1.00;;;8.30;99.90;;;;;;5073127;28;20813;-69
2021/03/12 01:08:06;;;;;;;2.67;1.10;;;8.30;99.90;;;;;;5073541;28;20854;-69
2021/03/12 01:10:33;;;;;;;5.40;1.00;;;8.30;99.90;;;;;;5072858;28;20589;-70
2021/03/12 01:13:00;;;;;;;2.10;0.90;;;8.20;99.90;;;;;;5073316;28;20884;-69
2021/03/12 01:15:28;;;;;;;3.27;0.90;;;8.20;99.90;;;;;;5072897;28;20965;-69
2021/03/12 01:17:55;;;;;;;4.60;1.17;;;8.20;99.90;;;;;;5072954;28;20526;-69
2021/03/12 01:20:25;;;;;;;3.83;0.87;;;8.20;99.90;;;;;;5072392;28;20443;-69
2021/03/12 01:22:55;;;;;;;2.33;1.03;;;8.20;99.90;;;;;;5104358;22;20498;-69
2021/03/12 01:25:23;;;;;;;2.30;1.00;;;8.10;99.90;;;;;;5092996;28;20434;-69
2021/03/12 01:27:50;;;;;;;2.50;1.00;;;8.10;99.90;;;;;;5093097;28;20529;-69
2021/03/12 01:30:20;;;;;;;5.00;1.10;;;8.00;99.90;;;;;;5092916;28;21188;-69
2021/03/12 01:32:47;;;;;;;2.80;1.10;;;8.00;99.90;;;;;;5110166;28;20453;-69
2021/03/12 01:35:15;;;;;;;2.80;0.90;;;8.00;99.90;;;;;;5113484;28;20572;-69
2021/03/12 01:37:42;;;;;;;5.30;1.20;;;8.00;99.90;;;;;;5113333;28;20472;-70
2021/03/12 01:40:12;;;;;;;3.10;0.70;;;7.90;99.90;;;;;;5112413;28;20532;-70
2021/03/12 01:42:39;;;;;;;2.90;1.33;;;7.80;99.90;;;;;;5113227;28;20544;-70
2021/03/12 01:45:07;;;;;;;2.97;1.10;;;7.90;99.90;;;;;;5113090;28;20528;-68
2021/03/12 01:47:34;;;;;;;6.03;1.00;;;7.90;99.90;;;;;;5113333;28;20521;-68
2021/03/12 01:50:00;;;;;;;4.03;0.97;;;7.90;99.90;;;;;;5112742;28;20529;-68
2021/03/12 01:52:26;;;;;;;2.80;1.20;;;8.00;99.90;;;;;;5112930;28;20497;-68
2021/03/12 01:54:53;;;;;;;7.20;1.50;;;8.00;99.90;;;;;;5112879;28;20844;-69
2021/03/12 01:57:20;;;;;;;3.47;1.00;;;7.90;99.90;;;;;;5113174;28;20470;-68
2021/03/12 01:59:47;;;;;;;4.10;0.83;;;8.00;99.90;;;;;;5112640;28;20442;-67
2021/03/12 02:02:13;;;;;;;4.00;1.03;;;8.00;99.90;;;;;;5112833;28;20539;-67
2021/03/12 02:04:39;;;;;;;4.40;1.10;;;8.00;99.90;;;;;;5113075;28;20472;-67
2021/03/12 02:07:06;;;;;;;2.40;1.20;;;7.80;99.90;;;;;;5112807;28;20441;-67
2021/03/12 02:09:33;;;;;;;7.70;1.57;;;7.70;99.90;;;;;;5112646;28;20528;-68
2021/03/12 02:12:05;;;;;;;4.93;1.60;;;7.60;99.90;;;;;;5112053;28;20468;-69
2021/03/12 02:14:37;;;;;;;3.10;1.13;;;7.50;99.90;;;;;;5113201;28;20552;-70
2021/03/12 02:17:08;;;;;;;3.57;1.00;;;7.30;99.90;;;;;;5113501;28;20468;-69
2021/03/12 02:19:51;;;;;;;2.90;1.30;;;7.30;99.90;;;;;;5112467;28;20449;-69
2021/03/12 02:22:19;;;;;;;5.60;3.00;;;7.40;99.90;;;;;;5112418;28;20469;-70
2021/03/12 02:24:52;;;;;;;4.60;1.43;;;7.50;99.90;;;;;;5112704;28;20509;-70
2021/03/12 02:27:21;;;;;;;2.83;1.00;;;7.40;99.90;;;;;;5112225;28;20540;-69
2021/03/12 02:29:51;;;;;;;3.20;1.23;;;7.50;99.90;;;;;;5112353;28;20520;-70
2021/03/12 02:32:21;;;;;;;3.63;1.07;;;7.50;99.90;;;;;;5112688;28;20490;-68
2021/03/12 02:34:48;;;;;;;2.43;1.10;;;7.40;99.90;;;;;;5111859;28;20564;-69
2021/03/12 02:37:17;;;;;;;2.53;1.00;;;7.30;99.90;;;;;;5112404;28;21123;-69
2021/03/12 02:39:48;;;;;;;3.40;1.03;;;7.20;99.90;;;;;;5112454;28;20855;-69
2021/03/12 02:42:15;;;;;;;3.50;1.20;;;7.00;99.90;;;;;;5112554;28;20622;-69
2021/03/12 02:44:44;;;;;;;3.90;1.30;;;6.70;99.90;;;;;;5112370;28;20468;-69
2021/03/12 02:47:14;;;;;;;2.80;1.23;;;6.70;99.90;;;;;;5112707;28;20543;-69
2021/03/12 02:49:41;;;;;;;1.90;0.93;;;6.60;99.90;;;;;;5111992;28;20816;-69
2021/03/12 02:52:08;;;;;;;4.63;1.73;;;6.50;99.90;;;;;;5112436;28;20493;-70
2021/03/12 02:54:35;;;;;;;3.43;1.27;;;6.40;99.90;;;;;;5112280;28;20504;-69
2021/03/12 02:57:02;;;;;;;4.50;1.20;;;6.30;99.90;;;;;;5112431;28;20446;-71
2021/03/12 02:59:28;;;;;;;5.30;1.17;;;6.30;99.90;;;;;;5112103;28;20433;-69
2021/03/12 03:01:57;;;;;;;1.80;0.97;;;6.30;99.90;;;;;;5112119;28;20461;-69
2021/03/12 03:04:24;;;;;;;4.33;1.30;;;6.20;99.90;;;;;;5112167;28;20520;-69
2021/03/12 03:06:51;;;;;;;5.83;1.60;;;6.20;99.90;;;;;;5112231;28;20487;-69
2021/03/12 03:09:19;;;;;;;2.10;1.10;;;6.20;99.90;;;;;;5112092;28;20611;-69
2021/03/12 03:11:46;;;;;;;4.30;1.10;;;6.20;99.90;;;;;;5112168;28;20465;-69
2021/03/12 03:14:15;;;;;;;1.80;1.13;;;6.20;99.90;;;;;;5111980;28;20564;-69
2021/03/12 03:16:44;;;;;;;2.03;0.80;;;6.20;99.90;;;;;;5112035;28;20482;-70
2021/03/12 03:19:13;;;;;;;4.63;1.10;;;6.30;99.90;;;;;;5111683;28;20583;-69
2021/03/12 03:21:42;;;;;;;3.53;1.27;;;6.30;99.90;;;;;;5111724;28;20483;-69
2021/03/12 03:24:09;;;;;;;3.90;1.30;;;6.30;99.90;;;;;;5112099;28;20488;-69
2021/03/12 03:26:37;;;;;;;6.40;1.50;;;6.40;99.90;;;;;;5112309;28;20532;-70
2021/03/12 03:29:04;;;;;;;2.63;1.07;;;6.50;99.90;;;;;;5111443;28;20438;-68
2021/03/12 03:31:30;;;;;;;3.63;1.40;;;6.50;99.90;;;;;;5111991;28;20870;-71
2021/03/12 03:33:56;;;;;;;2.30;0.90;;;6.60;99.90;;;;;;5111996;28;20567;-68
2021/03/12 03:36:24;;;;;;;3.57;0.83;;;6.70;99.90;;;;;;5112078;28;20451;-69
2021/03/12 03:38:50;;;;;;;2.53;1.07;;;6.90;99.90;;;;;;5111584;28;20993;-71
2021/03/12 03:41:18;;;;;;;3.47;0.87;;;6.90;99.90;;;;;;5111948;28;20467;-69
2021/03/12 03:43:48;;;;;;;3.40;0.97;;;7.00;99.90;;;;;;5111943;28;20524;-71
2021/03/12 03:46:16;;;;;;;6.97;1.50;;;7.10;99.90;;;;;;5112993;28;20499;-71
2021/03/12 03:48:44;;;;;;;4.63;1.20;;;7.10;99.90;;;;;;5115359;28;20536;-70
2021/03/12 03:51:15;;;;;;;3.47;1.17;;;7.30;99.90;;;;;;5115413;28;20538;-71
2021/03/12 03:53:43;;;;;;;3.97;1.43;;;7.30;99.90;;;;;;5115457;28;20836;-69
2021/03/12 03:56:13;;;;;;;3.50;1.03;;;7.30;99.90;;;;;;5115307;28;20543;-69
2021/03/12 03:58:41;;;;;;;4.43;2.00;;;7.20;99.90;;;;;;5114990;28;20474;-70
2021/03/12 04:01:08;;;;;;;3.90;1.10;;;7.20;99.90;;;;;;5115190;28;20465;-70
2021/03/12 04:03:36;;;;;;;3.20;1.17;;;7.20;99.90;;;;;;5115384;28;20532;-70
2021/03/12 04:06:03;;;;;;;3.70;1.33;;;7.20;99.90;;;;;;5115070;28;20528;-70
2021/03/12 04:08:31;;;;;;;4.70;1.03;;;7.20;99.90;;;;;;5114943;28;20532;-69
2021/03/12 04:10:59;;;;;;;3.63;1.00;;;7.20;99.90;;;;;;5114845;28;20541;-69
2021/03/12 04:13:27;;;;;;;7.53;1.70;;;7.30;99.90;;;;;;5115480;28;20528;-71
2021/03/12 04:15:54;;;;;;;4.60;1.10;;;7.30;99.90;;;;;;5115056;28;20481;-70
2021/03/12 04:18:21;;;;;;;4.13;1.10;;;7.30;99.90;;;;;;5114859;28;20441;-69
2021/03/12 04:20:48;;;;;;;5.70;1.30;;;7.20;99.90;;;;;;5114648;28;20520;-70
2021/03/12 04:23:16;;;;;;;3.67;1.20;;;7.20;99.90;;;;;;5114808;28;20622;-69
2021/03/12 04:25:43;;;;;;;4.70;1.47;;;7.30;99.90;;;;;;5114569;28;20516;-69
2021/03/12 04:28:11;;;;;;;2.87;1.10;;;7.20;99.90;;;;;;5114894;28;20544;-70
2021/03/12 04:30:37;;;;;;;6.27;2.07;;;7.30;99.90;;;;;;5114505;28;20445;-70
2021/03/12 04:33:04;;;;;;;2.47;1.40;;;7.30;99.90;;;;;;5114645;28;20457;-70
2021/03/12 04:35:30;;;;;;;3.00;1.10;;;7.30;99.90;;;;;;5114640;28;20481;-69
2021/03/12 04:37:58;;;;;;;2.20;0.97;;;7.30;99.90;;;;;;5114526;28;20943;-70
2021/03/12 04:40:24;;;;;;;4.37;1.30;;;7.30;99.90;;;;;;5114175;28;20443;-69
2021/03/12 04:42:51;;;;;;;4.17;1.10;;;7.30;99.90;;;;;;5114430;28;20492;-70
2021/03/12 04:45:19;;;;;;;4.07;1.40;;;7.20;99.90;;;;;;5114613;28;20528;-70
2021/03/12 04:47:47;;;;;;;3.30;1.33;;;7.20;99.90;;;;;;5114187;28;20441;-70
2021/03/12 04:50:14;;;;;;;4.20;1.10;;;7.30;99.90;;;;;;5113921;28;20442;-70
2021/03/12 04:52:41;;;;;;;4.27;1.30;;;7.20;99.90;;;;;;5114129;28;20461;-71
2021/03/12 04:55:10;;;;;;;9.10;1.80;;;7.30;99.90;;;;;;5114471;28;20533;-69
2021/03/12 04:57:37;;;;;;;4.40;1.37;;;7.30;99.90;;;;;;5113985;28;20521;-69
2021/03/12 05:00:06;;;;;;;4.40;1.30;;;7.20;99.90;;;;;;5114238;28;20469;-69
2021/03/12 05:02:34;;;;;;;5.60;1.57;;;7.20;99.90;;;;;;5114098;28;20461;-67
2021/03/12 05:05:03;;;;;;;3.83;1.47;;;7.20;99.90;;;;;;5114109;28;20441;-67
2021/03/12 05:07:31;;;;;;;3.00;1.20;;;7.20;99.90;;;;;;5114075;28;20437;-67
2021/03/12 05:09:57;;;;;;;3.17;1.17;;;7.20;99.90;;;;;;5113823;28;20524;-67
2021/03/12 05:12:23;;;;;;;3.40;1.00;;;7.20;99.90;;;;;;5114086;28;20561;-67
2021/03/12 05:14:50;;;;;;;11.07;1.60;;;7.10;99.90;;;;;;5115004;28;20473;-68
2021/03/12 05:17:16;;;;;;;3.33;1.17;;;7.10;99.90;;;;;;5113818;28;20528;-68
2021/03/12 05:19:43;;;;;;;4.10;1.50;;;7.00;99.90;;;;;;5113278;28;20951;-68
2021/03/12 05:22:10;;;;;;;7.23;1.50;;;6.90;99.90;;;;;;5113680;28;20848;-67
2021/03/12 05:24:36;;;;;;;5.23;3.10;;;6.90;99.90;;;;;;5113799;28;20449;-68
2021/03/12 05:27:02;;;;;;;3.17;1.07;;;6.90;99.90;;;;;;5113481;28;20455;-66
2021/03/12 05:29:29;;;;;;;3.43;1.10;;;6.90;99.90;;;;;;5113430;28;20528;-67
2021/03/12 05:31:55;;;;;;;3.30;1.13;;;6.90;99.90;;;;;;5113305;28;20500;-67
2021/03/12 05:34:22;;;;;;;4.33;1.33;;;6.90;99.90;;;;;;5113374;28;20998;-67
2021/03/12 05:36:49;;;;;;;6.90;1.90;;;6.80;99.90;;;;;;5113436;28;20520;-67
2021/03/12 05:39:15;;;;;;;2.97;1.43;;;6.80;99.90;;;;;;5112840;28;20947;-67
2021/03/12 05:41:42;;;;;;;5.43;1.37;;;6.80;99.90;;;;;;5112739;28;20980;-68
2021/03/12 05:44:08;;;;;;;4.60;1.53;;;6.80;99.90;;;;;;5112942;28;20520;-69
2021/03/12 05:46:35;;;;;;;3.13;1.10;;;6.70;99.90;;;;;;5113133;28;20544;-70
2021/03/12 05:49:02;;;;;;;3.73;1.30;;;6.70;99.90;;;;;;5112536;28;20441;-69
2021/03/12 05:51:29;;;;;;;6.30;1.60;;;6.60;99.90;;;;;;5112930;28;20530;-70
2021/03/12 05:53:56;;;;;;;4.27;1.50;;;6.50;99.90;;;;;;5112880;28;20924;-69
2021/03/12 05:56:23;;;;;;;4.00;1.40;;;6.50;99.90;;;;;;5112874;28;20452;-69
2021/03/12 05:58:49;;;;;;;4.63;1.30;;;6.40;99.90;;;;;;5112706;28;20475;-71
2021/03/12 06:01:16;;;;;;;7.40;1.33;;;6.30;99.90;;;;;;5112825;28;20499;-68
2021/03/12 06:03:43;;;;;;;4.80;1.10;;;6.30;99.90;;;;;;5112963;28;20863;-67
2021/03/12 06:06:10;;;;;;;4.40;1.87;;;6.40;99.90;;;;;;5112579;28;20537;-68
2021/03/12 06:08:36;;;;;;;5.30;1.73;;;6.40;99.90;;;;;;5111850;28;20582;-68
2021/03/12 06:11:04;;;;;;;3.20;1.47;;;6.50;99.90;;;;;;5112485;28;20952;-67
2021/03/12 06:13:30;;;;;;;4.33;1.70;;;6.50;99.90;;;;;;5112634;28;20448;-68
2021/03/12 06:15:57;;;;;;;7.87;1.30;;;6.50;99.90;;;;;;5112392;28;20577;-68
2021/03/12 06:18:25;;;;;;;2.50;1.13;;;6.40;99.90;;;;;;5112766;28;20877;-68
2021/03/12 06:20:52;;;;;;;3.83;1.10;;;6.40;99.90;;;;;;5111684;28;21142;-69
2021/03/12 06:23:42;;;;;;;5.17;1.37;;;6.40;99.90;;;;;;5100833;28;20460;-69
2021/03/12 06:26:10;;;;;;;3.73;1.10;;;6.50;99.90;;;;;;5112158;28;20425;-68
2021/03/12 06:28:37;;;;;;;6.13;1.87;;;6.60;99.90;;;;;;5102216;28;20533;-69
2021/03/12 06:31:27;;;;;;;2.40;1.00;;;6.70;99.90;;;;;;5091891;28;20895;-68
2021/03/12 06:34:07;;;;;;;3.27;1.20;;;6.70;99.90;;;;;;5089896;28;20438;-69
2021/03/12 06:36:34;;;;;;;3.90;1.80;;;6.70;99.90;;;;;;5086969;28;20452;-68
2021/03/12 06:39:00;;;;;;;3.80;1.47;;;6.70;99.90;;;;;;5094922;28;20517;-68
2021/03/12 06:41:38;;;;;;;5.00;1.67;;;6.70;99.90;;;;;;5090779;28;20562;-69
2021/03/12 06:44:26;;;;;;;5.87;1.47;;;6.80;99.90;;;;;;5089788;28;20939;-70
2021/03/12 06:46:52;;;;;;;4.87;1.30;;;6.90;99.90;;;;;;5079288;28;20525;-70
2021/03/12 06:49:18;;;;;;;3.43;1.13;;;7.00;99.90;;;;;;5089792;28;21061;-70
2021/03/12 06:51:56;;;;;;;3.00;1.10;;;7.10;99.90;;;;;;5088896;28;20462;-70
2021/03/12 06:54:22;;;;;;;3.90;1.10;;;7.10;99.90;;;;;;5090459;28;20535;-69
2021/03/12 06:56:50;;;;;;;3.67;1.70;;;7.20;99.90;;;;;;5090368;28;20446;-70
2021/03/12 06:59:26;;;;;;;2.43;1.00;;;7.20;99.90;;;;;;5089482;28;20454;-69
2021/03/12 07:02:00;;;;;;;2.63;1.30;;;7.20;99.90;;;;;;5089538;28;21211;-72
2021/03/12 07:04:28;;;;;;;1.97;1.03;;;7.20;99.90;;;;;;5089499;28;20435;-72
2021/03/12 07:06:55;;;;;;;4.33;1.40;;;7.30;99.90;;;;;;5089626;28;20499;-72
2021/03/12 07:09:23;;;;;;;2.67;0.97;;;7.30;99.90;;;;;;5089385;28;20474;-69
2021/03/12 07:11:58;;;;;;;4.47;1.27;;;7.40;99.90;;;;;;5090144;28;20964;-68
2021/03/12 07:14:25;;;;;;;4.27;1.03;;;7.50;99.90;;;;;;5090149;28;20914;-67
2021/03/12 07:16:52;;;;;;;4.60;1.23;;;7.60;99.90;;;;;;5090572;28;20485;-70
2021/03/12 07:19:19;;;;;;;4.90;1.30;;;7.70;99.90;;;;;;5089933;28;20489;-68
2021/03/12 07:21:50;;;;;;;3.03;1.40;;;7.80;99.90;;;;;;5094150;28;20505;-68
2021/03/12 07:24:21;;;;;;;4.20;1.50;;;8.10;99.90;;;;;;5094339;28;20465;-69
2021/03/12 07:26:49;;;;;;;2.10;1.10;;;8.40;99.90;;;;;;5094275;28;20527;-70
2021/03/12 07:29:18;;;;;;;2.80;0.90;;;8.50;99.90;;;;;;5093700;28;20499;-69
2021/03/12 07:31:47;;;;;;;6.23;1.60;;;8.30;99.90;;;;;;5093835;28;20871;-70
2021/03/12 07:34:19;;;;;;;4.07;1.63;;;8.10;99.90;;;;;;5094153;28;20592;-71
2021/03/12 07:36:46;;;;;;;5.43;2.03;;;8.00;99.90;;;;;;5093693;28;20496;-69
2021/03/12 07:39:17;;;;;;;3.93;1.30;;;8.10;99.90;;;;;;5096821;28;20468;-68
2021/03/12 07:41:45;;;;;;;7.07;2.27;;;8.10;99.90;;;;;;5096106;28;20461;-69
2021/03/12 07:44:13;;;;;;;4.80;1.27;;;8.20;99.90;;;;;;5108979;28;20529;-68
2021/03/12 07:46:41;;;;;;;4.27;1.30;;;8.20;99.90;;;;;;5105117;28;20444;-66
2021/03/12 07:49:33;;;;;;;6.23;1.83;;;8.20;99.90;;;;;;5102237;28;20438;-67
2021/03/12 07:52:01;;;;;;;5.60;1.43;;;7.90;99.90;;;;;;5104607;28;20577;-67
2021/03/12 07:54:45;;;;;;;5.23;1.50;;;7.80;99.90;;;;;;5093466;28;20922;-67
2021/03/12 07:57:12;;;;;;;3.67;1.73;;;7.60;99.90;;;;;;5093610;28;20854;-67
2021/03/12 07:59:58;;;;;;;3.27;1.47;;;7.50;99.90;;;;;;5095668;28;20525;-68
2021/03/12 08:02:59;;;;;;;5.43;1.77;;;7.40;99.90;;;;;;5103395;28;20457;-69
2021/03/12 08:05:36;;;;;;;3.80;1.50;;;7.30;99.90;;;;;;5100989;28;20445;-68
2021/03/12 08:08:03;;;;;;;5.30;1.23;;;7.30;99.90;;;;;;5093187;28;20438;-67
2021/03/12 08:10:30;;;;;;;3.53;1.50;;;7.20;99.90;;;;;;5093334;28;20437;-69
2021/03/12 08:12:57;;;;;;;2.83;1.30;;;7.10;99.90;;;;;;5093489;28;21023;-67
2021/03/12 08:15:25;;;;;;;3.60;1.50;;;7.10;99.90;;;;;;5093055;28;20481;-68
2021/03/12 08:18:24;;;;;;;2.50;1.20;;;7.00;99.90;;;;;;5105117;28;20524;-68
2021/03/12 08:20:50;;;;;;;6.70;1.30;;;6.90;99.90;;;;;;5113169;28;20524;-68
2021/03/12 08:23:30;;;;;;;5.77;1.80;;;6.80;99.90;;;;;;5113585;28;20524;-68
2021/03/12 08:25:56;;;;;;;3.30;1.27;;;6.80;99.90;;;;;;5113277;28;20477;-68
2021/03/12 08:28:28;;;;;;;8.20;2.30;;;6.90;99.90;;;;;;5113181;28;20524;-68
2021/03/12 08:30:55;;;;;;;4.77;1.77;;;7.00;99.90;;;;;;5106306;28;20464;-68
2021/03/12 08:33:37;;;;;;;4.73;1.20;;;7.10;99.90;;;;;;5094324;28;20474;-68
2021/03/12 08:36:04;;;;;;;4.57;1.27;;;7.20;99.90;;;;;;5105819;28;20478;-68
2021/03/12 08:38:44;;;;;;;3.73;1.40;;;7.50;99.90;;;;;;5098662;28;20494;-68
2021/03/12 08:41:13;;;;;;;4.70;1.07;;;8.00;99.90;;;;;;5094433;28;20462;-68
2021/03/12 08:43:52;;;;;;;5.13;1.50;;;8.60;99.90;;;;;;5100519;28;20437;-68
2021/03/12 08:46:23;;;;;;;5.03;1.00;;;8.80;99.90;;;;;;5095924;28;20434;-67
2021/03/12 08:48:52;;;;;;;2.10;0.90;;;9.00;99.90;;;;;;5092364;28;20442;-69
2021/03/12 08:51:21;;;;;;;2.73;1.00;;;9.20;99.90;;;;;;5095644;28;20541;-68
2021/03/12 08:53:50;;;;;;;3.60;1.27;;;9.30;99.90;;;;;;5097778;28;21052;-68
2021/03/12 08:56:26;;;;;;;2.83;1.20;;;9.30;99.90;;;;;;5095369;28;20474;-67
2021/03/12 08:58:54;;;;;;;3.27;1.10;;;9.10;99.90;;;;;;5104635;28;20472;-67
2021/03/12 09:01:22;;;;;;;3.40;1.47;;;9.10;99.90;;;;;;5101599;28;20493;-68
2021/03/12 09:03:52;;;;;;;3.13;1.30;;;9.20;99.90;;;;;;5106776;28;20442;-68
2021/03/12 09:06:20;;;;;;;4.13;1.20;;;9.20;99.90;;;;;;5110052;28;20441;-67
2021/03/12 09:08:47;;;;;;;4.33;1.73;;;9.10;99.90;;;;;;5112239;28;20481;-68
2021/03/12 09:11:17;;;;;;;6.23;1.17;;;9.10;99.90;;;;;;5110922;28;20537;-68
2021/03/12 09:13:44;;;;;;;4.57;1.43;;;9.10;99.90;;;;;;5112369;28;20464;-67
2021/03/12 09:16:16;;;;;;;2.50;1.50;;;9.00;99.90;;;;;;5106298;28;20567;-68
2021/03/12 09:18:43;;;;;;;2.80;0.93;;;9.00;99.90;;;;;;5104730;28;20484;-68
2021/03/12 09:21:13;;;;;;;3.47;1.53;;;9.10;99.90;;;;;;5103796;28;20513;-68
2021/03/12 09:23:41;;;;;;;5.03;1.40;;;9.30;99.90;;;;;;5110715;28;20452;-69
2021/03/12 09:26:09;;;;;;;4.33;1.03;;;9.70;99.90;;;;;;5110470;28;20525;-71
2021/03/12 09:28:36;;;;;;;6.30;1.37;;;10.30;99.90;;;;;;5110327;28;20481;-71
2021/03/12 09:31:04;;;;;;;2.37;1.10;;;10.80;99.90;;;;;;5112732;28;20469;-68
2021/03/12 09:33:34;;;;;;;4.50;1.10;;;10.90;99.90;;;;;;5112463;28;20441;-68
2021/03/12 09:36:02;;;;;;;5.17;1.23;;;10.70;99.90;;;;;;5112347;28;20508;-69
2021/03/12 09:38:35;;;;;;;2.57;1.10;;;10.70;99.90;;;;;;5105254;28;20525;-67
2021/03/12 09:41:15;;;;;;;5.00;1.60;;;10.20;99.90;;;;;;5103454;28;20872;-67
2021/03/12 09:43:43;;;;;;;3.80;1.37;;;9.80;99.90;;;;;;5095737;28;20466;-67
2021/03/12 09:46:09;;;;;;;3.83;1.40;;;9.70;99.90;;;;;;5098787;28;20517;-66
2021/03/12 09:48:35;;;;;;;5.03;1.10;;;9.80;99.90;;;;;;5098505;28;20579;-66
2021/03/12 09:51:02;;;;;;;6.13;1.77;;;9.60;99.90;;;;;;5101778;28;20524;-67
2021/03/12 09:53:30;;;;;;;3.77;1.30;;;9.50;99.90;;;;;;5089859;28;20959;-68
2021/03/12 09:55:57;;;;;;;2.90;1.13;;;9.50;99.90;;;;;;5090014;28;20512;-68
2021/03/12 09:58:23;;;;;;;3.57;1.30;;;9.50;99.90;;;;;;5088703;28;20474;-67
2021/03/12 10:00:50;;;;;;;3.23;1.00;;;9.50;99.90;;;;;;5088839;28;20869;-66
2021/03/12 10:03:16;;;;;;;4.53;1.27;;;9.50;99.90;;;;;;5099018;28;20473;-66
2021/03/12 10:05:43;;;;;;;3.90;1.33;;;9.50;99.90;;;;;;5108893;28;20437;-67
2021/03/12 10:08:09;;;;;;;5.33;1.10;;;9.40;99.90;;;;;;5100361;28;20549;-66
2021/03/12 10:10:37;;;;;;;3.17;1.07;;;9.30;99.90;;;;;;5092593;28;20433;-67
2021/03/12 10:13:05;;;;;;;5.00;1.10;;;9.30;99.90;;;;;;5100919;28;20551;-67
2021/03/12 10:15:34;;;;;;;4.43;1.10;;;9.30;99.90;;;;;;5106426;28;20496;-67
2021/03/12 10:18:01;;;;;;;3.70;1.10;;;9.40;99.90;;;;;;5108881;28;20933;-68
2021/03/12 10:20:30;;;;;;;3.30;1.10;;;9.40;99.90;;;;;;5105734;28;20586;-67
2021/03/12 10:22:59;;;;;;;5.57;1.73;;;9.30;99.90;;;;;;5095304;28;20497;-66
2021/03/12 10:25:28;;;;;;;4.67;1.40;;;9.20;99.90;;;;;;5109185;28;20473;-67
2021/03/12 10:27:57;;;;;;;5.13;2.13;;;9.70;99.90;;;;;;5095280;28;20462;-67
2021/03/12 10:30:29;;;;;;;4.90;1.27;;;10.30;99.90;;;;;;5096126;28;20469;-66
2021/03/12 10:32:58;;;;;;;3.67;1.20;;;10.80;99.90;;;;;;5103812;28;20485;-66
2021/03/12 10:35:27;;;;;;;5.80;1.60;;;11.40;99.90;;;;;;5108689;28;20968;-67
2021/03/12 10:37:56;;;;;;;4.10;1.10;;;11.70;99.90;;;;;;5103539;28;20442;-67
2021/03/12 10:40:23;;;;;;;6.30;1.53;;;11.90;99.90;;;;;;5087549;28;20442;-67
2021/03/12 10:42:50;;;;;;;3.70;1.40;;;12.10;99.90;;;;;;5088749;28;20489;-67
2021/03/12 10:45:23;;;;;;;3.13;1.20;;;12.20;99.90;;;;;;5098173;28;20895;-67
2021/03/12 10:47:57;;;;;;;2.30;0.77;;;11.90;99.90;;;;;;5102765;28;20509;-66
2021/03/12 10:50:25;;;;;;;2.87;1.00;;;11.40;99.90;;;;;;5106720;28;20525;-67
2021/03/12 10:53:05;;;;;;;4.07;0.93;;;10.70;99.90;;;;;;5108639;28;20457;-67
2021/03/12 10:55:33;;;;;;;5.10;1.00;;;10.10;99.90;;;;;;5092740;28;20562;-66
2021/03/12 10:58:00;;;;;;;2.07;0.83;;;9.70;99.90;;;;;;5091897;28;20457;-67
2021/03/12 11:00:29;;;;;;;1.70;0.77;;;9.60;99.90;;;;;;5091630;28;20466;-68
2021/03/12 11:03:03;;;;;;;3.80;0.90;;;9.80;99.90;;;;;;5092646;28;20500;-68
2021/03/12 11:05:30;;;;;;;3.83;0.90;;;10.30;99.90;;;;;;5092393;28;20797;-68
2021/03/12 11:07:57;;;;;;;3.47;1.10;;;10.60;99.90;;;;;;5097956;28;20873;-67
2021/03/12 11:10:24;;;;;;;3.37;0.83;;;10.50;99.90;;;;;;5094654;28;20449;-67
2021/03/12 11:12:52;;;;;;;2.60;0.90;;;10.50;99.90;;;;;;5092469;28;20458;-67
2021/03/12 11:15:20;;;;;;;2.70;1.00;;;11.30;99.90;;;;;;5092208;28;20473;-68
2021/03/12 11:17:48;;;;;;;1.40;0.60;;;12.20;99.90;;;;;;5092356;28;20466;-67
2021/03/12 11:20:18;;;;;;;4.33;0.90;;;13.20;99.00;;;;;;5094477;28;20438;-67
2021/03/12 11:22:45;;;;;;;2.30;0.83;;;13.50;97.80;;;;;;5094796;28;20557;-68
2021/03/12 11:25:11;;;;;;;2.17;1.00;;;14.30;96.80;;;;;;5102153;28;20466;-66
2021/03/12 11:27:38;;;;;;;4.00;0.90;;;14.70;94.40;;;;;;5096710;28;20526;-66
2021/03/12 11:30:08;;;;;;;2.50;1.27;;;14.40;93.30;;;;;;5099624;28;21005;-67
2021/03/12 11:32:34;;;;;;;1.60;0.70;;;14.50;94.00;;;;;;5097106;28;20493;-67
2021/03/12 11:35:02;;;;;;;2.73;0.60;;;14.70;92.00;;;;;;5093292;28;20510;-66
2021/03/12 11:37:28;;;;;;;1.60;0.70;;;14.70;92.50;;;;;;5103200;28;20558;-67
2021/03/12 11:39:55;;;;;;;2.33;0.90;;;14.20;92.00;;;;;;5111419;28;20449;-67
2021/03/12 11:42:22;;;;;;;2.03;0.70;;;13.70;93.20;;;;;;5112392;28;21120;-67
2021/03/12 11:44:48;;;;;;;3.23;1.03;;;13.00;93.80;;;;;;5103069;28;20547;-67
2021/03/12 11:47:14;;;;;;;4.10;1.10;;;12.80;95.60;;;;;;5098637;28;20441;-66
2021/03/12 11:49:45;;;;;;;3.27;1.30;;;13.00;95.60;;;;;;5098480;28;20433;-66
2021/03/12 11:52:13;;;;;;;2.10;0.90;;;12.90;95.00;;;;;;5097355;28;20466;-67
2021/03/12 11:54:39;;;;;;;2.43;0.90;;;12.60;94.50;;;;;;5091170;28;20470;-67
2021/03/12 11:57:06;;;;;;;2.23;1.20;;;12.80;92.10;;;;;;5092158;28;20532;-67
2021/03/12 11:59:33;;;;;;;1.80;0.90;;;13.00;91.40;;;;;;5091090;28;20533;-68
2021/03/12 12:02:01;;;;;;;2.10;0.90;;;13.60;90.60;;;;;;5092965;28;20544;-66
2021/03/12 12:04:27;;;;;;;3.00;0.87;;;13.80;91.00;;;;;;5093408;28;20446;-68
2021/03/12 12:06:55;;;;;;;2.13;0.87;;;13.50;90.20;;;;;;5094516;28;20500;-69
2021/03/12 12:09:22;;;;;;;2.27;0.90;;;13.60;89.00;;;;;;5105361;28;20933;-69
2021/03/12 12:11:49;;;;;;;4.43;1.80;;;13.80;89.90;;;;;;5109971;28;20589;-69
2021/03/12 12:14:16;;;;;;;3.33;1.00;;;14.10;91.00;;;;;;5104381;28;20615;-69
2021/03/12 12:16:42;;;;;;;6.83;1.00;;;14.40;90.00;;;;;;5105244;28;20477;-68
2021/03/12 12:19:12;;;;;;;3.80;0.87;;;13.30;88.20;;;;;;5102972;28;20980;-69
2021/03/12 12:21:38;;;;;;;3.03;1.13;;;12.10;90.70;;;;;;5112792;28;20491;-70
2021/03/12 12:24:09;;;;;;;1.90;0.73;;;11.80;92.00;;;;;;5106280;28;20450;-71
2021/03/12 12:26:36;;;;;;;1.80;0.80;;;11.60;91.90;;;;;;5106622;28;20502;-72
2021/03/12 12:29:04;;;;;;;3.13;1.20;;;11.50;91.90;;;;;;5113224;28;21004;-69
2021/03/12 12:31:31;;;;;;;2.70;1.67;;;11.40;92.20;;;;;;5105811;28;20476;-67
2021/03/12 12:33:58;;;;;;;2.00;1.07;;;12.20;93.10;;;;;;5106029;28;20541;-68
2021/03/12 12:36:25;;;;;;;2.83;1.03;;;13.80;90.60;;;;;;5108037;28;20477;-69
2021/03/12 12:38:52;;;;;;;2.43;0.70;;;14.80;88.50;;;;;;5105134;28;20438;-69
2021/03/12 12:41:19;;;;;;;3.80;1.00;;;14.40;86.30;;;;;;5105327;28;20544;-69
2021/03/12 12:43:46;;;;;;;2.87;0.97;;;13.90;81.60;;;;;;5110642;28;20473;-69
2021/03/12 12:46:13;;;;;;;2.00;0.77;;;13.50;83.10;;;;;;5107271;28;20505;-68
2021/03/12 12:48:39;;;;;;;2.80;1.00;;;13.70;85.00;;;;;;5105739;28;20449;-70
2021/03/12 12:51:06;;;;;;;2.00;0.90;;;13.20;81.70;;;;;;5111709;28;20516;-70
2021/03/12 12:53:33;;;;;;;3.00;0.97;;;12.90;84.80;;;;;;5108678;28;20476;-69
2021/03/12 12:55:59;;;;;;;2.30;0.90;;;13.00;82.90;;;;;;5107478;28;20570;-70
2021/03/12 12:58:26;;;;;;;2.13;0.80;;;12.70;86.20;;;;;;5104871;28;20536;-69
2021/03/12 13:00:54;;;;;;;2.33;0.97;;;12.80;85.40;;;;;;5109596;28;20477;-69
2021/03/12 13:03:20;;;;;;;4.30;1.20;;;11.90;85.00;;;;;;5104151;28;20497;-71